createdAt,value
2023-02-03T00:00:00.264Z,100970.81
2023-02-03T00:03:08.928Z,100967.09
2023-02-03T00:06:14.839Z,100981.84
2023-02-03T00:09:20.788Z,100991.56
2023-02-03T00:12:27.551Z,100991.53
2023-02-03T00:15:37.002Z,101005.47
2023-02-03T00:18:45.619Z,101006.22
2023-02-03T00:21:52.826Z,101010.88
2023-02-03T00:25:03.157Z,101007.50
2023-02-03T00:28:15.055Z,101013.13
2023-02-03T00:31:23.793Z,101016.87
2023-02-03T00:34:39.089Z,101011.53
2023-02-03T00:37:46.535Z,101019.56
2023-02-03T00:40:59.439Z,101020.84
2023-02-03T00:44:08.272Z,101027.84
2023-02-03T00:47:15.694Z,101030.47
2023-02-03T00:50:23.217Z,101042.03
2023-02-03T00:53:30.932Z,101039.63
2023-02-03T00:56:39.415Z,101048.66
2023-02-03T00:59:47.733Z,101053.81
2023-02-03T01:02:54.912Z,101044.47
2023-02-03T01:06:30.542Z,101050.78
2023-02-03T01:09:39.697Z,101063.03
2023-02-03T01:12:49.307Z,101063.47
2023-02-03T01:15:58.712Z,101077.09
2023-02-03T01:19:06.015Z,101075.50
2023-02-03T01:22:16.469Z,101088.00
2023-02-03T01:25:23.999Z,101080.06
2023-02-03T01:28:30.827Z,101081.00
2023-02-03T01:31:38.889Z,101080.59
2023-02-03T01:34:49.051Z,101084.66
2023-02-03T01:37:55.886Z,101090.13
2023-02-03T01:41:03.340Z,101093.84
2023-02-03T01:44:35.171Z,101087.56
2023-02-03T01:47:51.069Z,101087.06
2023-02-03T01:50:57.468Z,101098.34
2023-02-03T01:54:06.977Z,101101.03
2023-02-03T01:57:23.598Z,101106.19
2023-02-03T02:00:33.393Z,101107.09
2023-02-03T02:03:49.862Z,101103.97
2023-02-03T02:06:59.859Z,101110.56
2023-02-03T02:10:10.312Z,101115.00
2023-02-03T02:13:20.519Z,101112.47
2023-02-03T02:16:49.890Z,101110.44
2023-02-03T02:20:18.124Z,101112.41
2023-02-03T02:23:44.054Z,101095.97
2023-02-03T02:27:09.924Z,101102.47
2023-02-03T02:30:35.251Z,101095.59
2023-02-03T02:33:47.770Z,101105.44
2023-02-03T02:36:53.794Z,101103.50
2023-02-03T02:40:04.131Z,101105.84
2023-02-03T02:43:12.539Z,101105.75
2023-02-03T02:46:24.198Z,101116.69
2023-02-03T02:49:39.267Z,101127.41
2023-02-03T02:52:52.258Z,101128.66
2023-02-03T02:56:05.917Z,101129.75
2023-02-03T02:59:19.929Z,101124.13
2023-02-03T03:02:35.053Z,101123.03
2023-02-03T03:05:45.363Z,101136.66
2023-02-03T03:09:01.224Z,101133.19
2023-02-03T03:12:11.749Z,101131.31
2023-02-03T03:15:21.282Z,101134.31
2023-02-03T03:18:40.487Z,101145.19
2023-02-03T03:21:51.141Z,101138.31
2023-02-03T03:25:02.036Z,101127.28
2023-02-03T03:28:11.639Z,101131.87
2023-02-03T03:31:20.875Z,101133.34
2023-02-03T03:34:27.711Z,101133.78
2023-02-03T03:37:39.554Z,101134.87
2023-02-03T03:40:53.492Z,101131.53
2023-02-03T03:44:02.549Z,101134.03
2023-02-03T03:47:17.637Z,101130.50
2023-02-03T03:50:29.227Z,101130.94
2023-02-03T03:53:41.118Z,101128.16
2023-02-03T03:56:51.389Z,101129.16
2023-02-03T04:00:01.406Z,101120.66
2023-02-03T04:03:18.710Z,101130.81
2023-02-03T04:06:27.831Z,101121.09
2023-02-03T04:09:38.955Z,101106.19
2023-02-03T04:12:47.604Z,101102.59
2023-02-03T04:15:53.809Z,101105.09
2023-02-03T04:19:03.723Z,101116.62
2023-02-03T04:22:13.738Z,101117.28
2023-02-03T04:25:30.256Z,101107.44
2023-02-03T04:28:35.442Z,101099.13
2023-02-03T04:31:49.518Z,101100.72
2023-02-03T04:34:57.328Z,101095.75
2023-02-03T04:38:09.709Z,101102.66
2023-02-03T04:41:16.058Z,101101.87
2023-02-03T04:44:25.890Z,101105.34
2023-02-03T04:47:34.809Z,101108.78
2023-02-03T04:50:43.809Z,101098.22
2023-02-03T04:53:51.209Z,101087.50
2023-02-03T04:57:01.271Z,101083.53
2023-02-03T05:00:08.101Z,101084.03
2023-02-03T05:03:16.659Z,101077.56
2023-02-03T05:06:27.311Z,101085.03
2023-02-03T05:09:36.205Z,101087.47
2023-02-03T05:12:43.337Z,101078.47
2023-02-03T05:15:54.422Z,101074.41
2023-02-03T05:19:04.885Z,101074.09
2023-02-03T05:22:15.737Z,101072.91
2023-02-03T05:25:22.873Z,101077.66
2023-02-03T05:28:30.454Z,101092.50
2023-02-03T05:31:37.907Z,101090.72
2023-02-03T05:34:45.203Z,101091.50
2023-02-03T05:37:52.544Z,101088.91
2023-02-03T05:41:19.139Z,101096.47
2023-02-03T05:44:25.881Z,101104.91
2023-02-03T05:47:32.434Z,101108.13
2023-02-03T05:50:38.802Z,101109.16
2023-02-03T05:53:44.541Z,101106.59
2023-02-03T05:56:54.199Z,101108.53
2023-02-03T06:00:01.635Z,101117.88
2023-02-03T06:03:16.583Z,101122.00
2023-02-03T06:06:22.963Z,101113.00
2023-02-03T06:09:27.363Z,101105.56
2023-02-03T06:12:32.503Z,101107.44
2023-02-03T06:15:37.258Z,101104.37
2023-02-03T06:18:41.756Z,101104.00
2023-02-03T06:21:44.810Z,101103.78
2023-02-03T06:24:48.600Z,101104.91
2023-02-03T06:27:52.556Z,101114.06
2023-02-03T06:30:56.340Z,101116.84
2023-02-03T06:34:03.373Z,101116.09
2023-02-03T06:37:09.450Z,101116.84
2023-02-03T06:40:13.459Z,101111.81
2023-02-03T06:43:17.512Z,101114.59
2023-02-03T06:46:21.871Z,101118.63
2023-02-03T06:49:27.885Z,101120.12
2023-02-03T06:52:32.884Z,101122.97
2023-02-03T06:55:37.708Z,101116.03
2023-02-03T06:58:42.545Z,101114.19
2023-02-03T07:01:47.471Z,101117.38
2023-02-03T07:04:51.437Z,101119.88
2023-02-03T07:07:56.161Z,101115.72
2023-02-03T07:10:59.778Z,101125.72
2023-02-03T07:14:05.421Z,101120.66
2023-02-03T07:17:09.833Z,101109.78
2023-02-03T07:20:15.016Z,101108.72
2023-02-03T07:23:20.136Z,101106.88
2023-02-03T07:26:26.354Z,101108.72
2023-02-03T07:29:34.006Z,101108.16
2023-02-03T07:32:38.836Z,101116.22
2023-02-03T07:35:43.101Z,101113.03
2023-02-03T07:38:48.298Z,101123.59
2023-02-03T07:41:53.335Z,101130.41
2023-02-03T07:44:58.238Z,101121.53
2023-02-03T07:48:02.146Z,101129.88
2023-02-03T07:51:09.783Z,101131.00
2023-02-03T07:54:14.272Z,101129.09
2023-02-03T07:57:18.755Z,101137.63
2023-02-03T08:00:22.876Z,101135.09
2023-02-03T08:03:28.561Z,101140.78
2023-02-03T08:06:32.245Z,101147.53
2023-02-03T08:09:38.673Z,101147.03
2023-02-03T08:12:45.365Z,101135.66
2023-02-03T08:15:51.616Z,101137.06
2023-02-03T08:18:55.612Z,101136.78
2023-02-03T08:22:00.624Z,101137.50
2023-02-03T08:25:06.034Z,101138.28
2023-02-03T08:28:10.452Z,101130.78
2023-02-03T08:31:16.596Z,101134.72
2023-02-03T08:34:20.533Z,101140.78
2023-02-03T08:37:25.405Z,101142.84
2023-02-03T08:40:29.938Z,101148.66
2023-02-03T08:43:33.814Z,101142.75
2023-02-03T08:46:38.920Z,101141.25
2023-02-03T08:49:43.881Z,101142.09
2023-02-03T08:52:49.133Z,101152.34
2023-02-03T08:55:53.978Z,101147.78
2023-02-03T08:59:00.537Z,101148.91
2023-02-03T09:02:06.217Z,101148.53
2023-02-03T09:05:13.177Z,101151.50
2023-02-03T09:08:17.660Z,101149.28
2023-02-03T09:11:21.609Z,101152.75
2023-02-03T09:14:26.893Z,101145.47
2023-02-03T09:17:31.366Z,101157.03
2023-02-03T09:20:34.992Z,101142.53
2023-02-03T09:23:39.456Z,101145.66
2023-02-03T09:26:43.570Z,101139.34
2023-02-03T09:29:48.586Z,101146.50
2023-02-03T09:32:57.231Z,101144.47
2023-02-03T09:36:03.229Z,101136.53
2023-02-03T09:39:08.204Z,101129.81
2023-02-03T09:42:32.392Z,101129.16
2023-02-03T09:45:38.968Z,101119.91
2023-02-03T09:48:48.213Z,101102.41
2023-02-03T09:52:25.451Z,101105.41
2023-02-03T09:55:56.444Z,101096.12
2023-02-03T09:59:01.104Z,101090.97
2023-02-03T10:02:24.356Z,101075.50
2023-02-03T10:05:38.026Z,101077.25
2023-02-03T10:08:57.901Z,101069.53
2023-02-03T10:12:11.423Z,101054.97
2023-02-03T10:15:22.315Z,101049.28
2023-02-03T10:18:33.022Z,101037.06
2023-02-03T10:21:43.167Z,101035.78
2023-02-03T10:24:51.809Z,101026.47
2023-02-03T10:28:00.241Z,101016.37
2023-02-03T10:31:09.104Z,100993.16
2023-02-03T10:34:15.176Z,100990.91
2023-02-03T10:37:47.835Z,100987.06
2023-02-03T10:40:53.208Z,100976.91
2023-02-03T10:43:59.556Z,100981.66
2023-02-03T10:47:03.409Z,100975.47
2023-02-03T10:50:09.154Z,100972.75
2023-02-03T10:53:19.035Z,100955.41
2023-02-03T10:56:25.578Z,100958.00
2023-02-03T10:59:30.297Z,100945.06
2023-02-03T11:02:34.967Z,100939.34
2023-02-03T11:05:39.477Z,100925.53
2023-02-03T11:08:46.005Z,100924.31
2023-02-03T11:12:03.664Z,100916.72
2023-02-03T11:15:09.601Z,100915.94
2023-02-03T11:18:26.999Z,100904.38
2023-02-03T11:21:32.611Z,100891.31
2023-02-03T11:24:40.564Z,100885.16
2023-02-03T11:27:44.821Z,100890.59
2023-02-03T11:30:55.866Z,100880.78
2023-02-03T11:34:04.498Z,100867.72
2023-02-03T11:37:27.363Z,100855.41
2023-02-03T11:40:32.863Z,100850.44
2023-02-03T11:43:36.703Z,100841.69
2023-02-03T11:46:40.869Z,100834.97
2023-02-03T11:49:47.377Z,100828.56
2023-02-03T11:52:58.285Z,100823.25
2023-02-03T11:56:07.852Z,100813.09
2023-02-03T11:59:31.518Z,100796.41
2023-02-03T12:02:47.471Z,100798.94
2023-02-03T12:05:54.001Z,100790.94
2023-02-03T12:09:08.183Z,100768.81
2023-02-03T12:12:15.806Z,100768.06
2023-02-03T12:15:28.046Z,100759.75
2023-02-03T12:18:50.737Z,100752.34
2023-02-03T12:22:01.163Z,100737.97
2023-02-03T12:25:19.957Z,100724.72
2023-02-03T12:28:33.268Z,100713.88
2023-02-03T12:31:45.381Z,100718.00
2023-02-03T12:35:15.114Z,100692.28
2023-02-03T12:38:43.011Z,100680.59
2023-02-03T12:41:53.274Z,100667.97
2023-02-03T12:45:06.637Z,100657.34
2023-02-03T12:48:16.996Z,100659.00
2023-02-03T12:51:41.503Z,100642.16
2023-02-03T12:54:50.948Z,100632.25
2023-02-03T12:58:00.172Z,100613.28
2023-02-03T13:01:08.556Z,100622.56
2023-02-03T13:04:30.422Z,100612.12
2023-02-03T13:07:37.007Z,100588.63
2023-02-03T13:10:50.470Z,100583.31
2023-02-03T13:13:56.575Z,100583.19
2023-02-03T13:17:20.914Z,100568.25
2023-02-03T13:20:26.302Z,100561.03
2023-02-03T13:23:30.064Z,100557.94
2023-02-03T13:26:48.744Z,100556.25
2023-02-03T13:29:55.469Z,100556.56
2023-02-03T13:32:58.916Z,100541.59
2023-02-03T13:36:20.832Z,100536.81
2023-02-03T13:39:35.963Z,100534.00
2023-02-03T13:42:42.773Z,100525.53
2023-02-03T13:45:48.098Z,100516.53
2023-02-03T13:48:54.561Z,100505.56
2023-02-03T13:51:58.113Z,100503.66
2023-02-03T13:55:03.013Z,100497.00
2023-02-03T13:58:08.921Z,100481.13
2023-02-03T14:01:30.414Z,100480.38
2023-02-03T14:04:36.490Z,100481.00
2023-02-03T14:07:40.581Z,100468.25
2023-02-03T14:10:43.749Z,100479.22
2023-02-03T14:13:46.374Z,100474.19
2023-02-03T14:16:54.713Z,100469.19
2023-02-03T14:19:59.284Z,100460.09
2023-02-03T14:23:08.197Z,100456.81
2023-02-03T14:26:20.114Z,100448.03
2023-02-03T14:29:30.745Z,100448.09
2023-02-03T14:33:05.194Z,100443.50
2023-02-03T14:36:26.912Z,100439.06
2023-02-03T14:39:38.049Z,100438.13
2023-02-03T14:43:10.123Z,100429.75
2023-02-03T14:46:24.225Z,100421.78
2023-02-03T14:49:34.282Z,100414.69
2023-02-03T14:52:40.159Z,100408.50
2023-02-03T14:56:01.581Z,100412.47
2023-02-03T14:59:11.850Z,100398.91
2023-02-03T15:02:28.795Z,100397.72
2023-02-03T15:05:34.539Z,100397.03
2023-02-03T15:08:43.810Z,100386.22
2023-02-03T15:11:49.226Z,100371.63
2023-02-03T15:14:58.341Z,100378.03
2023-02-03T15:18:23.065Z,100373.06
2023-02-03T15:21:28.481Z,100363.81
2023-02-03T15:24:36.595Z,100363.59
2023-02-03T15:27:41.438Z,100355.72
2023-02-03T15:30:48.349Z,100344.06
2023-02-03T15:33:57.045Z,100344.81
2023-02-03T15:37:03.772Z,100333.41
2023-02-03T15:40:10.823Z,100329.22
2023-02-03T15:43:22.270Z,100333.50
2023-02-03T15:46:38.300Z,100328.16
2023-02-03T15:49:44.060Z,100327.22
2023-02-03T15:52:51.232Z,100322.09
2023-02-03T15:55:59.451Z,100309.47
2023-02-03T15:59:07.998Z,100316.72
2023-02-03T16:02:24.325Z,100314.19
2023-02-03T16:05:32.949Z,100301.72
2023-02-03T16:08:48.251Z,100295.03
2023-02-03T16:12:06.598Z,100311.34
2023-02-03T16:15:26.682Z,100320.81
2023-02-03T16:18:37.624Z,100313.16
2023-02-03T16:21:53.823Z,100304.09
2023-02-03T16:25:14.399Z,100291.59
2023-02-03T16:28:38.574Z,100276.00
2023-02-03T16:32:06.818Z,100268.50
2023-02-03T16:35:31.005Z,100261.50
2023-02-03T16:38:56.798Z,100258.16
2023-02-03T16:42:26.356Z,100255.44
2023-02-03T16:45:50.597Z,100250.00
2023-02-03T16:49:16.336Z,100235.25
2023-02-03T16:52:24.089Z,100231.69
2023-02-03T16:55:34.480Z,100212.22
2023-02-03T16:58:42.491Z,100199.72
2023-02-03T17:01:48.596Z,100188.91
2023-02-03T17:04:53.905Z,100181.91
2023-02-03T17:08:02.409Z,100178.69
2023-02-03T17:11:16.450Z,100169.34
2023-02-03T17:14:23.356Z,100145.06
2023-02-03T17:17:32.351Z,100149.94
2023-02-03T17:20:41.386Z,100138.97
2023-02-03T17:23:48.234Z,100138.63
2023-02-03T17:26:58.037Z,100135.25
2023-02-03T17:30:10.665Z,100107.12
2023-02-03T17:33:18.698Z,100108.50
2023-02-03T17:36:26.870Z,100108.28
2023-02-03T17:56:18.380Z,100095.59
2023-02-03T17:59:25.318Z,100090.97
2023-02-03T18:02:31.849Z,100081.81
2023-02-03T18:05:42.567Z,100099.38
2023-02-03T18:08:51.572Z,100089.31
2023-02-03T18:11:59.232Z,100082.97
2023-02-03T18:15:10.795Z,100081.37
2023-02-03T18:18:20.131Z,100065.03
2023-02-03T18:21:27.453Z,100056.59
2023-02-03T18:24:35.424Z,100053.66
2023-02-03T18:27:44.697Z,100041.78
2023-02-03T18:30:55.538Z,100034.63
2023-02-03T18:34:06.682Z,100033.59
2023-02-03T18:37:13.915Z,100023.16
2023-02-03T18:40:23.080Z,100021.19
2023-02-03T18:43:31.337Z,100021.06
2023-02-03T18:46:40.373Z,100036.38
2023-02-03T18:49:51.916Z,100040.47
2023-02-03T18:53:01.212Z,100048.69
2023-02-03T18:56:13.154Z,100059.66
2023-02-03T18:59:17.958Z,100047.88
2023-02-03T19:02:31.631Z,100046.34
2023-02-03T19:05:41.959Z,100048.84
2023-02-03T19:08:50.330Z,100056.06
2023-02-03T19:12:03.748Z,100052.28
2023-02-03T19:15:15.110Z,100032.91
2023-02-03T19:18:24.169Z,99990.38
2023-02-03T19:21:33.272Z,100010.53
2023-02-03T19:24:40.251Z,100017.16
2023-02-03T19:27:48.830Z,100007.19
2023-02-03T19:31:02.934Z,100010.31
2023-02-03T19:34:16.515Z,100015.16
2023-02-03T19:37:22.476Z,100015.56
2023-02-03T19:40:30.655Z,100020.16
2023-02-03T19:43:40.678Z,100003.81
2023-02-03T19:46:50.983Z,100014.16
2023-02-03T19:49:56.978Z,100023.69
2023-02-03T19:53:07.573Z,100029.53
2023-02-03T19:56:14.568Z,100007.16
2023-02-03T19:59:23.134Z,100015.38
2023-02-03T20:02:33.567Z,100020.34
2023-02-03T20:05:40.589Z,100020.84
2023-02-03T20:08:45.035Z,100024.69
2023-02-03T20:11:50.155Z,100025.81
2023-02-03T20:14:54.969Z,100027.56
2023-02-03T20:18:00.942Z,100035.19
2023-02-03T20:21:07.123Z,100025.66
2023-02-03T20:24:14.799Z,100026.50
2023-02-03T20:27:20.999Z,100024.38
2023-02-03T20:30:26.706Z,100017.22
2023-02-03T20:33:32.655Z,100013.78
2023-02-03T20:36:42.101Z,100013.87
2023-02-03T20:39:49.490Z,100015.44
2023-02-03T20:42:57.892Z,100004.25
2023-02-03T20:46:12.232Z,99996.06
2023-02-03T20:49:21.767Z,100006.19
2023-02-03T20:52:31.172Z,99981.88
2023-02-03T20:55:38.352Z,99968.06
2023-02-03T20:58:48.335Z,99963.50
2023-02-03T21:02:09.063Z,99956.19
2023-02-03T21:05:25.122Z,99931.38
2023-02-03T21:08:32.815Z,99943.50
2023-02-03T21:11:39.617Z,99967.56
2023-02-03T21:14:49.654Z,99968.81
2023-02-03T21:17:56.545Z,99984.84
2023-02-03T21:21:04.387Z,99974.84
2023-02-03T21:24:38.756Z,99971.56
2023-02-03T21:27:48.890Z,99971.69
2023-02-03T21:30:57.330Z,99992.63
2023-02-03T21:34:20.492Z,99975.97
2023-02-03T21:37:28.151Z,100001.06
2023-02-03T21:40:37.327Z,100000.75
2023-02-03T21:43:45.826Z,100021.28
2023-02-03T21:46:52.281Z,100031.44
2023-02-03T21:49:58.345Z,100029.38
2023-02-03T21:53:10.228Z,100028.69
2023-02-03T21:56:18.715Z,100038.31
2023-02-03T21:59:31.362Z,100026.59
2023-02-03T22:02:42.227Z,100022.22
2023-02-03T22:05:49.427Z,100022.34
2023-02-03T22:08:57.399Z,100027.19
2023-02-03T22:12:04.812Z,100025.97
2023-02-03T22:15:11.406Z,100042.81
2023-02-03T22:18:16.518Z,100044.31
2023-02-03T22:21:24.085Z,100045.88
2023-02-03T22:24:34.790Z,100036.50
2023-02-03T22:27:39.269Z,100027.00
2023-02-03T22:30:44.436Z,100094.13
2023-02-03T22:33:50.956Z,100069.16
2023-02-03T22:36:56.957Z,100073.84
2023-02-03T22:40:02.488Z,100077.13
2023-02-03T22:43:07.693Z,100080.81
2023-02-03T22:46:15.198Z,100092.53
2023-02-03T22:49:22.314Z,100094.09
2023-02-03T22:52:28.319Z,100091.53
2023-02-03T22:55:37.153Z,100103.69
2023-02-03T22:58:43.874Z,100112.41
2023-02-03T23:01:54.752Z,100106.53
2023-02-03T23:05:04.904Z,100097.56
2023-02-03T23:08:11.496Z,100095.88
2023-02-03T23:11:18.109Z,100089.91
2023-02-03T23:14:29.592Z,100078.63
2023-02-03T23:17:40.172Z,100073.63
2023-02-03T23:20:45.277Z,100066.81
2023-02-03T23:23:50.525Z,100062.91
2023-02-03T23:27:00.303Z,100065.59
2023-02-03T23:30:11.425Z,100064.13
2023-02-03T23:33:18.377Z,100056.38
2023-02-03T23:36:29.233Z,100049.41
2023-02-03T23:39:37.100Z,100056.03
2023-02-03T23:42:46.644Z,100040.47
2023-02-03T23:45:56.645Z,100043.25
2023-02-03T23:49:04.382Z,100048.22
2023-02-03T23:52:13.386Z,100038.34
2023-02-03T23:55:21.004Z,100034.19
2023-02-03T23:58:28.468Z,100031.00
